sensor_id;sensor_type;location;lat;lon;timestamp;temperature;humidity
55365;DHT22;41245;45.384;20.390;2023-10-09T00:00:34;333.10;358.40
55365;DHT22;41245;45.384;20.390;2023-10-09T00:03:03;333.00;409.60
55365;DHT22;41245;45.384;20.390;2023-10-09T00:05:33;332.90;486.40
55365;DHT22;41245;45.384;20.390;2023-10-09T00:08:12;332.80;384.00
55365;DHT22;41245;45.384;20.390;2023-10-09T00:10:42;308.10;435.20
55365;DHT22;41245;45.384;20.390;2023-10-09T00:13:14;307.90;332.80
55365;DHT22;41245;45.384;20.390;2023-10-09T00:15:39;307.90;435.20
55365;DHT22;41245;45.384;20.390;2023-10-09T00:18:07;307.90;588.80
55365;DHT22;41245;45.384;20.390;2023-10-09T00:20:40;307.80;512.00
55365;DHT22;41245;45.384;20.390;2023-10-09T00:23:11;307.70;409.60
55365;DHT22;41245;45.384;20.390;2023-10-09T00:33:52;307.50;563.20
55365;DHT22;41245;45.384;20.390;2023-10-09T00:36:20;307.40;409.60
55365;DHT22;41245;45.384;20.390;2023-10-09T00:38:52;307.30;128.00
55365;DHT22;41245;45.384;20.390;2023-10-09T00:41:18;307.20;256.00
55365;DHT22;41245;45.384;20.390;2023-10-09T00:43:51;282.50;6528.00
55365;DHT22;41245;45.384;20.390;2023-10-09T05:40:02;333.20;665.60
55365;DHT22;41245;45.384;20.390;2023-10-09T05:42:32;333.10;665.60
55365;DHT22;41245;45.384;20.390;2023-10-09T05:45:12;333.20;716.80
55365;DHT22;41245;45.384;20.390;2023-10-09T05:47:44;333.10;640.00
55365;DHT22;41245;45.384;20.390;2023-10-09T05:50:23;333.20;640.00
55365;DHT22;41245;45.384;20.390;2023-10-09T05:52:50;333.30;640.00
55365;DHT22;41245;45.384;20.390;2023-10-09T05:55:23;333.30;691.20
55365;DHT22;41245;45.384;20.390;2023-10-09T05:58:07;333.40;742.40
55365;DHT22;41245;45.384;20.390;2023-10-09T06:00:51;333.70;742.40
55365;DHT22;41245;45.384;20.390;2023-10-09T06:03:35;358.40;640.00
55365;DHT22;41245;45.384;20.390;2023-10-09T06:06:20;333.70;768.00
55365;DHT22;41245;45.384;20.390;2023-10-09T06:09:06;333.60;768.00
55365;DHT22;41245;45.384;20.390;2023-10-09T06:11:47;333.60;768.00
55365;DHT22;41245;45.384;20.390;2023-10-09T06:14:21;358.40;665.60
55365;DHT22;41245;45.384;20.390;2023-10-09T06:19:24;358.60;665.60
55365;DHT22;41245;45.384;20.390;2023-10-09T06:21:57;333.70;665.60
55365;DHT22;41245;45.384;20.390;2023-10-09T06:24:42;333.10;742.40
55365;DHT22;41245;45.384;20.390;2023-10-09T06:27:11;333.30;742.40
55365;DHT22;41245;45.384;20.390;2023-10-09T06:29:39;333.50;716.80
55365;DHT22;41245;45.384;20.390;2023-10-09T06:32:13;333.60;665.60
55365;DHT22;41245;45.384;20.390;2023-10-09T06:34:46;358.40;691.20
55365;DHT22;41245;45.384;20.390;2023-10-09T06:37:15;358.40;742.40
55365;DHT22;41245;45.384;20.390;2023-10-09T06:40:00;358.40;716.80
55365;DHT22;41245;45.384;20.390;2023-10-09T06:42:55;358.40;793.60
55365;DHT22;41245;45.384;20.390;2023-10-09T06:45:20;333.50;793.60
55365;DHT22;41245;45.384;20.390;2023-10-09T06:47:48;358.40;742.40
55365;DHT22;41245;45.384;20.390;2023-10-09T06:50:35;358.40;742.40
55365;DHT22;41245;45.384;20.390;2023-10-09T06:53:19;358.40;691.20
55365;DHT22;41245;45.384;20.390;2023-10-09T06:55:46;358.60;691.20
55365;DHT22;41245;45.384;20.390;2023-10-09T07:00:51;358.60;691.20
55365;DHT22;41245;45.384;20.390;2023-10-09T07:03:35;358.60;716.80
55365;DHT22;41245;45.384;20.390;2023-10-09T07:06:18;358.70;742.40
55365;DHT22;41245;45.384;20.390;2023-10-09T07:08:53;358.70;742.40
55365;DHT22;41245;45.384;20.390;2023-10-09T07:11:52;358.90;793.60
55365;DHT22;41245;45.384;20.390;2023-10-09T07:14:22;358.80;793.60
55365;DHT22;41245;45.384;20.390;2023-10-09T07:17:03;359.20;819.20
55365;DHT22;41245;45.384;20.390;2023-10-09T07:19:48;359.20;870.40
55365;DHT22;41245;45.384;20.390;2023-10-09T07:22:14;384.40;844.80
55365;DHT22;41245;45.384;20.390;2023-10-09T07:32:59;384.80;844.80
55365;DHT22;41245;45.384;20.390;2023-10-09T07:35:47;384.40;819.20
55365;DHT22;41245;45.384;20.390;2023-10-09T07:38:25;384.90;921.60
55365;DHT22;41245;45.384;20.390;2023-10-09T07:43:24;409.80;998.40
55365;DHT22;41245;45.384;20.390;2023-10-09T07:46:06;409.80;1024.00
55365;DHT22;41245;45.384;20.390;2023-10-09T07:48:50;409.70;947.20
55365;DHT22;41245;45.384;20.390;2023-10-09T07:51:19;409.90;1049.60
55365;DHT22;41245;45.384;20.390;2023-10-09T07:53:52;409.80;972.80
55365;DHT22;41245;45.384;20.390;2023-10-09T07:56:36;410.10;998.40
55365;DHT22;41245;45.384;20.390;2023-10-09T07:59:14;410.30;998.40
55365;DHT22;41245;45.384;20.390;2023-10-09T08:01:40;410.20;1075.20
55365;DHT22;41245;45.384;20.390;2023-10-09T08:04:21;410.10;1049.60
55365;DHT22;41245;45.384;20.390;2023-10-09T08:07:11;409.70;1075.20
55365;DHT22;41245;45.384;20.390;2023-10-09T08:09:54;409.70;1075.20
55365;DHT22;41245;45.384;20.390;2023-10-09T08:12:38;409.80;1075.20
55365;DHT22;41245;45.384;20.390;2023-10-09T08:15:11;409.90;972.80
55365;DHT22;41245;45.384;20.390;2023-10-09T08:17:50;409.90;1075.20
55365;DHT22;41245;45.384;20.390;2023-10-09T08:20:24;409.90;921.60
55365;DHT22;41245;45.384;20.390;2023-10-09T08:22:55;410.10;1126.40
55365;DHT22;41245;45.384;20.390;2023-10-09T08:25:25;410.20;1075.20
55365;DHT22;41245;45.384;20.390;2023-10-09T08:28:09;410.20;1049.60
55365;DHT22;41245;45.384;20.390;2023-10-09T08:30:53;410.30;1100.80
55365;DHT22;41245;45.384;20.390;2023-10-09T08:33:19;410.40;1152.00
55365;DHT22;41245;45.384;20.390;2023-10-09T08:35:51;435.30;1075.20
55365;DHT22;41245;45.384;20.390;2023-10-09T08:38:20;435.30;1152.00
55365;DHT22;41245;45.384;20.390;2023-10-09T08:40:52;435.50;1203.20
55365;DHT22;41245;45.384;20.390;2023-10-09T08:43:24;435.40;1152.00
55365;DHT22;41245;45.384;20.390;2023-10-09T08:45:54;435.30;1177.60
55365;DHT22;41245;45.384;20.390;2023-10-09T08:48:27;435.50;1203.20
55365;DHT22;41245;45.384;20.390;2023-10-09T08:50:54;435.50;1228.80
55365;DHT22;41245;45.384;20.390;2023-10-09T08:53:21;435.70;1254.40
55365;DHT22;41245;45.384;20.390;2023-10-09T08:55:47;435.90;1280.00
55365;DHT22;41245;45.384;20.390;2023-10-09T08:58:17;435.90;1254.40
55365;DHT22;41245;45.384;20.390;2023-10-09T09:00:56;460.80;1203.20
55365;DHT22;41245;45.384;20.390;2023-10-09T09:03:24;436.00;1280.00
55365;DHT22;41245;45.384;20.390;2023-10-09T09:05:58;460.90;1280.00
55365;DHT22;41245;45.384;20.390;2023-10-09T09:08:29;460.80;1356.80
55365;DHT22;41245;45.384;20.390;2023-10-09T09:11:04;460.80;1254.40
55365;DHT22;41245;45.384;20.390;2023-10-09T09:16:33;460.80;1305.60
55365;DHT22;41245;45.384;20.390;2023-10-09T09:21:41;460.80;1280.00
55365;DHT22;41245;45.384;20.390;2023-10-09T09:24:10;461.00;1356.80
55365;DHT22;41245;45.384;20.390;2023-10-09T09:26:43;461.10;1331.20
55365;DHT22;41245;45.384;20.390;2023-10-09T09:29:15;461.20;1356.80
55365;DHT22;41245;45.384;20.390;2023-10-09T09:31:55;461.40;1356.80
55365;DHT22;41245;45.384;20.390;2023-10-09T09:34:53;461.50;1408.00
55365;DHT22;41245;45.384;20.390;2023-10-09T09:37:33;461.60;1408.00
55365;DHT22;41245;45.384;20.390;2023-10-09T09:40:08;486.40;1459.20
55365;DHT22;41245;45.384;20.390;2023-10-09T09:42:43;486.40;1254.40
55365;DHT22;41245;45.384;20.390;2023-10-09T09:45:14;486.50;1459.20
55365;DHT22;41245;45.384;20.390;2023-10-09T09:47:45;486.50;1510.40
55365;DHT22;41245;45.384;20.390;2023-10-09T09:50:17;486.40;1408.00
55365;DHT22;41245;45.384;20.390;2023-10-09T09:52:54;486.60;1433.60
55365;DHT22;41245;45.384;20.390;2023-10-09T09:55:19;486.80;1484.80
55365;DHT22;41245;45.384;20.390;2023-10-09T09:57:56;486.90;1459.20
55365;DHT22;41245;45.384;20.390;2023-10-09T10:00:26;487.00;1459.20
55365;DHT22;41245;45.384;20.390;2023-10-09T10:03:14;487.10;1459.20
55365;DHT22;41245;45.384;20.390;2023-10-09T10:05:44;487.20;1536.00
55365;DHT22;41245;45.384;20.390;2023-10-09T10:08:16;512.00;1510.40
55365;DHT22;41245;45.384;20.390;2023-10-09T10:16:08;512.30;1587.20
55365;DHT22;41245;45.384;20.390;2023-10-09T10:21:19;512.10;1638.40
55365;DHT22;41245;45.384;20.390;2023-10-09T10:24:02;512.20;1715.20
55365;DHT22;41245;45.384;20.390;2023-10-09T10:26:36;512.20;1638.40
55365;DHT22;41245;45.384;20.390;2023-10-09T10:29:19;512.40;1740.80
55365;DHT22;41245;45.384;20.390;2023-10-09T10:31:57;512.30;1689.60
55365;DHT22;41245;45.384;20.390;2023-10-09T10:34:25;512.40;1459.20
55365;DHT22;41245;45.384;20.390;2023-10-09T10:36:53;512.50;1433.60
55365;DHT22;41245;45.384;20.390;2023-10-09T10:39:26;512.70;1510.40
55365;DHT22;41245;45.384;20.390;2023-10-09T10:42:10;512.80;1536.00
55365;DHT22;41245;45.384;20.390;2023-10-09T11:08:44;538.30;1612.80
55365;DHT22;41245;45.384;20.390;2023-10-09T11:55:44;564.10;1792.00
55365;DHT22;41245;45.384;20.390;2023-10-09T11:58:17;563.90;1817.60
55365;DHT22;41245;45.384;20.390;2023-10-09T12:03:38;564.00;1817.60
55365;DHT22;41245;45.384;20.390;2023-10-09T12:06:05;564.10;1843.20
55365;DHT22;41245;45.384;20.390;2023-10-09T12:08:34;564.00;1920.00
55365;DHT22;41245;45.384;20.390;2023-10-09T12:11:01;564.10;1894.40
55365;DHT22;41245;45.384;20.390;2023-10-09T12:13:28;564.00;1894.40
55365;DHT22;41245;45.384;20.390;2023-10-09T12:15:54;564.00;1868.80
55365;DHT22;41245;45.384;20.390;2023-10-09T12:18:21;564.00;1868.80
55365;DHT22;41245;45.384;20.390;2023-10-09T12:20:49;564.00;1843.20
55365;DHT22;41245;45.384;20.390;2023-10-09T12:23:20;564.10;1843.20
55365;DHT22;41245;45.384;20.390;2023-10-09T12:25:48;588.80;1945.60
55365;DHT22;41245;45.384;20.390;2023-10-09T12:28:15;564.10;1817.60
55365;DHT22;41245;45.384;20.390;2023-10-09T12:30:41;564.00;1894.40
55365;DHT22;41245;45.384;20.390;2023-10-09T12:33:08;563.90;1868.80
55365;DHT22;41245;45.384;20.390;2023-10-09T12:35:40;564.00;1843.20
55365;DHT22;41245;45.384;20.390;2023-10-09T12:38:07;563.80;1817.60
55365;DHT22;41245;45.384;20.390;2023-10-09T12:40:39;563.90;1817.60
55365;DHT22;41245;45.384;20.390;2023-10-09T12:43:07;563.90;1817.60
55365;DHT22;41245;45.384;20.390;2023-10-09T12:45:42;563.90;1894.40
55365;DHT22;41245;45.384;20.390;2023-10-09T12:48:08;564.00;1843.20
55365;DHT22;41245;45.384;20.390;2023-10-09T12:50:38;564.00;1894.40
55365;DHT22;41245;45.384;20.390;2023-10-09T12:53:08;564.00;1971.20
55365;DHT22;41245;45.384;20.390;2023-10-09T12:55:37;564.00;1843.20
55365;DHT22;41245;45.384;20.390;2023-10-09T12:58:11;563.90;1920.00
55365;DHT22;41245;45.384;20.390;2023-10-09T13:00:42;564.00;1817.60
55365;DHT22;41245;45.384;20.390;2023-10-09T13:03:14;563.90;1945.60
55365;DHT22;41245;45.384;20.390;2023-10-09T13:05:49;563.90;1920.00
55365;DHT22;41245;45.384;20.390;2023-10-09T13:08:24;563.90;1894.40
55365;DHT22;41245;45.384;20.390;2023-10-09T13:10:57;564.00;1945.60
55365;DHT22;41245;45.384;20.390;2023-10-09T13:13:29;563.90;1945.60
55365;DHT22;41245;45.384;20.390;2023-10-09T13:16:14;563.80;1894.40
55365;DHT22;41245;45.384;20.390;2023-10-09T13:18:55;563.90;1971.20
55365;DHT22;41245;45.384;20.390;2023-10-09T13:21:23;564.00;1971.20
55365;DHT22;41245;45.384;20.390;2023-10-09T13:23:50;564.10;1894.40
55365;DHT22;41245;45.384;20.390;2023-10-09T13:26:19;564.10;1868.80
55365;DHT22;41245;45.384;20.390;2023-10-09T13:28:54;588.90;1945.60
55365;DHT22;41245;45.384;20.390;2023-10-09T13:31:22;589.10;1996.80
55365;DHT22;41245;45.384;20.390;2023-10-09T13:33:53;589.50;2073.60
55365;DHT22;41245;45.384;20.390;2023-10-09T13:36:25;614.40;2099.20
55365;DHT22;41245;45.384;20.390;2023-10-09T13:41:23;614.50;2022.40
55365;DHT22;41245;45.384;20.390;2023-10-09T13:43:55;614.50;2176.00
55365;DHT22;41245;45.384;20.390;2023-10-09T13:46:23;614.70;2048.00
55365;DHT22;41245;45.384;20.390;2023-10-09T13:48:49;614.90;2048.00
55365;DHT22;41245;45.384;20.390;2023-10-09T13:51:18;614.70;2176.00
55365;DHT22;41245;45.384;20.390;2023-10-09T13:53:45;614.60;2176.00
55365;DHT22;41245;45.384;20.390;2023-10-09T13:56:18;614.60;2201.60
55365;DHT22;41245;45.384;20.390;2023-10-09T13:58:49;614.70;2099.20
55365;DHT22;41245;45.384;20.390;2023-10-09T14:01:19;614.40;1996.80
55365;DHT22;41245;45.384;20.390;2023-10-09T14:03:58;614.40;2150.40
55365;DHT22;41245;45.384;20.390;2023-10-09T14:06:25;614.50;2073.60
55365;DHT22;41245;45.384;20.390;2023-10-09T14:09:02;614.40;2124.80
55365;DHT22;41245;45.384;20.390;2023-10-09T14:11:34;589.70;2124.80
55365;DHT22;41245;45.384;20.390;2023-10-09T14:14:06;589.60;1971.20
55365;DHT22;41245;45.384;20.390;2023-10-09T14:16:38;589.50;2124.80
55365;DHT22;41245;45.384;20.390;2023-10-09T14:19:08;589.50;2048.00
55365;DHT22;41245;45.384;20.390;2023-10-09T14:21:38;589.30;1971.20
55365;DHT22;41245;45.384;20.390;2023-10-09T14:24:06;589.30;2048.00
55365;DHT22;41245;45.384;20.390;2023-10-09T14:26:41;589.30;1996.80
55365;DHT22;41245;45.384;20.390;2023-10-09T14:29:07;589.20;1996.80
55365;DHT22;41245;45.384;20.390;2023-10-09T14:31:33;589.20;1996.80
55365;DHT22;41245;45.384;20.390;2023-10-09T14:34:05;589.10;2073.60
55365;DHT22;41245;45.384;20.390;2023-10-09T14:36:31;589.00;2252.80
55365;DHT22;41245;45.384;20.390;2023-10-09T14:43:54;589.00;2073.60
55365;DHT22;41245;45.384;20.390;2023-10-09T14:46:20;588.90;1894.40
55365;DHT22;41245;45.384;20.390;2023-10-09T14:48:55;588.80;1920.00
55365;DHT22;41245;45.384;20.390;2023-10-09T14:51:22;588.80;1920.00
55365;DHT22;41245;45.384;20.390;2023-10-09T15:31:36;563.60;2150.40
55365;DHT22;41245;45.384;20.390;2023-10-09T15:34:02;563.30;2099.20
55365;DHT22;41245;45.384;20.390;2023-10-09T15:36:28;538.40;2048.00
55365;DHT22;41245;45.384;20.390;2023-10-09T15:38:57;538.30;1766.40
55365;DHT22;41245;45.384;20.390;2023-10-09T15:41:27;538.10;1689.60
55365;DHT22;41245;45.384;20.390;2023-10-09T15:43:57;538.10;1920.00
55365;DHT22;41245;45.384;20.390;2023-10-09T15:46:23;538.00;1920.00
55365;DHT22;41245;45.384;20.390;2023-10-09T15:51:16;537.90;1971.20
55365;DHT22;41245;45.384;20.390;2023-10-09T15:53:45;537.60;1740.80
55365;DHT22;41245;45.384;20.390;2023-10-09T15:56:12;512.80;1561.60
55365;DHT22;41245;45.384;20.390;2023-10-09T15:58:42;512.50;1536.00
55365;DHT22;41245;45.384;20.390;2023-10-09T16:01:12;512.50;1561.60
55365;DHT22;41245;45.384;20.390;2023-10-09T16:03:44;512.30;1510.40
55365;DHT22;41245;45.384;20.390;2023-10-09T16:06:13;512.20;1536.00
55365;DHT22;41245;45.384;20.390;2023-10-09T16:08:40;512.10;1612.80
55365;DHT22;41245;45.384;20.390;2023-10-09T16:11:07;512.10;1638.40
55365;DHT22;41245;45.384;20.390;2023-10-09T16:13:34;512.10;1459.20
55365;DHT22;41245;45.384;20.390;2023-10-09T16:16:00;512.00;1587.20
55365;DHT22;41245;45.384;20.390;2023-10-09T16:18:27;512.00;1433.60
55365;DHT22;41245;45.384;20.390;2023-10-09T16:20:55;487.20;1689.60
55365;DHT22;41245;45.384;20.390;2023-10-09T16:23:21;487.20;1689.60
55365;DHT22;41245;45.384;20.390;2023-10-09T16:25:47;487.20;1715.20
55365;DHT22;41245;45.384;20.390;2023-10-09T16:28:14;487.20;1664.00
55365;DHT22;41245;45.384;20.390;2023-10-09T16:30:41;487.30;1740.80
55365;DHT22;41245;45.384;20.390;2023-10-09T16:33:08;487.30;1484.80
55365;DHT22;41245;45.384;20.390;2023-10-09T16:35:35;487.20;1510.40
55365;DHT22;41245;45.384;20.390;2023-10-09T16:38:03;487.20;1664.00
55365;DHT22;41245;45.384;20.390;2023-10-09T16:40:38;487.20;1536.00
55365;DHT22;41245;45.384;20.390;2023-10-09T16:43:04;487.20;1433.60
55365;DHT22;41245;45.384;20.390;2023-10-09T16:45:31;487.20;1459.20
55365;DHT22;41245;45.384;20.390;2023-10-09T16:48:01;487.20;1433.60
55365;DHT22;41245;45.384;20.390;2023-10-09T16:50:31;487.10;1408.00
55365;DHT22;41245;45.384;20.390;2023-10-09T16:52:57;487.20;1382.40
55365;DHT22;41245;45.384;20.390;2023-10-09T16:55:23;487.10;1408.00
55365;DHT22;41245;45.384;20.390;2023-10-09T16:57:52;487.20;1433.60
55365;DHT22;41245;45.384;20.390;2023-10-09T17:00:19;487.20;1433.60
55365;DHT22;41245;45.384;20.390;2023-10-09T17:02:58;487.10;1408.00
55365;DHT22;41245;45.384;20.390;2023-10-09T17:05:27;487.00;1382.40
55365;DHT22;41245;45.384;20.390;2023-10-09T17:07:56;486.80;1433.60
55365;DHT22;41245;45.384;20.390;2023-10-09T17:10:23;486.80;1433.60
55365;DHT22;41245;45.384;20.390;2023-10-09T17:12:53;486.90;1587.20
55365;DHT22;41245;45.384;20.390;2023-10-09T17:15:19;487.00;1484.80
55365;DHT22;41245;45.384;20.390;2023-10-09T17:17:46;487.00;1356.80
55365;DHT22;41245;45.384;20.390;2023-10-09T17:20:18;487.00;1305.60
55365;DHT22;41245;45.384;20.390;2023-10-09T17:22:47;486.90;1280.00
55365;DHT22;41245;45.384;20.390;2023-10-09T17:25:13;487.00;1433.60
55365;DHT22;41245;45.384;20.390;2023-10-09T17:27:42;487.00;1459.20
55365;DHT22;41245;45.384;20.390;2023-10-09T17:30:09;486.90;1408.00
55365;DHT22;41245;45.384;20.390;2023-10-09T17:32:36;486.90;1510.40
55365;DHT22;41245;45.384;20.390;2023-10-09T17:35:04;486.80;1587.20
55365;DHT22;41245;45.384;20.390;2023-10-09T17:37:37;486.80;1612.80
55365;DHT22;41245;45.384;20.390;2023-10-09T17:40:05;486.80;1510.40
55365;DHT22;41245;45.384;20.390;2023-10-09T17:42:35;486.90;1536.00
55365;DHT22;41245;45.384;20.390;2023-10-09T17:45:01;486.90;1536.00
55365;DHT22;41245;45.384;20.390;2023-10-09T17:47:33;487.10;1612.80
55365;DHT22;41245;45.384;20.390;2023-10-09T17:50:05;487.00;1587.20
55365;DHT22;41245;45.384;20.390;2023-10-09T17:52:37;486.90;1510.40
55365;DHT22;41245;45.384;20.390;2023-10-09T17:55:04;486.90;1331.20
55365;DHT22;41245;45.384;20.390;2023-10-09T17:57:33;487.00;1484.80
55365;DHT22;41245;45.384;20.390;2023-10-09T18:00:00;486.90;1587.20
55365;DHT22;41245;45.384;20.390;2023-10-09T18:02:26;486.90;1587.20
55365;DHT22;41245;45.384;20.390;2023-10-09T18:04:54;486.90;1587.20
55365;DHT22;41245;45.384;20.390;2023-10-09T18:07:20;486.90;1536.00
55365;DHT22;41245;45.384;20.390;2023-10-09T18:09:46;486.80;1587.20
55365;DHT22;41245;45.384;20.390;2023-10-09T18:12:21;486.80;1561.60
55365;DHT22;41245;45.384;20.390;2023-10-09T18:14:47;486.70;1561.60
55365;DHT22;41245;45.384;20.390;2023-10-09T18:17:18;486.50;1536.00
55365;DHT22;41245;45.384;20.390;2023-10-09T18:19:48;486.60;1536.00
55365;DHT22;41245;45.384;20.390;2023-10-09T18:22:17;486.50;1510.40
55365;DHT22;41245;45.384;20.390;2023-10-09T18:24:43;486.70;1510.40
55365;DHT22;41245;45.384;20.390;2023-10-09T18:27:09;486.70;1459.20
55365;DHT22;41245;45.384;20.390;2023-10-09T18:29:40;486.70;1356.80
55365;DHT22;41245;45.384;20.390;2023-10-09T18:32:07;486.70;1280.00
55365;DHT22;41245;45.384;20.390;2023-10-09T18:34:33;487.00;1305.60
55365;DHT22;41245;45.384;20.390;2023-10-09T18:36:58;486.80;1356.80
55365;DHT22;41245;45.384;20.390;2023-10-09T18:39:24;486.80;1305.60
55365;DHT22;41245;45.384;20.390;2023-10-09T18:41:50;486.80;1331.20
55365;DHT22;41245;45.384;20.390;2023-10-09T18:44:20;486.80;1356.80
55365;DHT22;41245;45.384;20.390;2023-10-09T18:46:45;486.70;1305.60
55365;DHT22;41245;45.384;20.390;2023-10-09T18:49:13;486.70;1305.60
55365;DHT22;41245;45.384;20.390;2023-10-09T18:51:39;486.70;1305.60
55365;DHT22;41245;45.384;20.390;2023-10-09T18:54:05;486.70;1331.20
55365;DHT22;41245;45.384;20.390;2023-10-09T18:56:32;486.70;1280.00
55365;DHT22;41245;45.384;20.390;2023-10-09T18:59:00;486.70;1382.40
55365;DHT22;41245;45.384;20.390;2023-10-09T19:01:26;486.70;1484.80
55365;DHT22;41245;45.384;20.390;2023-10-09T19:03:52;486.60;1382.40
55365;DHT22;41245;45.384;20.390;2023-10-09T19:06:18;486.60;1408.00
55365;DHT22;41245;45.384;20.390;2023-10-09T19:08:47;486.50;1536.00
55365;DHT22;41245;45.384;20.390;2023-10-09T19:11:14;486.50;1254.40
55365;DHT22;41245;45.384;20.390;2023-10-09T19:13:41;486.50;1254.40
55365;DHT22;41245;45.384;20.390;2023-10-09T19:16:07;486.50;1280.00
55365;DHT22;41245;45.384;20.390;2023-10-09T19:18:34;486.50;1254.40
55365;DHT22;41245;45.384;20.390;2023-10-09T19:21:10;486.50;1228.80
55365;DHT22;41245;45.384;20.390;2023-10-09T19:23:40;486.50;1254.40
55365;DHT22;41245;45.384;20.390;2023-10-09T19:26:10;486.50;1484.80
55365;DHT22;41245;45.384;20.390;2023-10-09T19:28:36;486.50;1280.00
55365;DHT22;41245;45.384;20.390;2023-10-09T19:31:05;486.60;1254.40
55365;DHT22;41245;45.384;20.390;2023-10-09T19:33:32;486.60;1305.60
55365;DHT22;41245;45.384;20.390;2023-10-09T19:36:07;486.50;1331.20
55365;DHT22;41245;45.384;20.390;2023-10-09T19:38:45;486.40;1228.80
55365;DHT22;41245;45.384;20.390;2023-10-09T19:41:19;461.60;1228.80
55365;DHT22;41245;45.384;20.390;2023-10-09T19:43:54;461.60;1305.60
55365;DHT22;41245;45.384;20.390;2023-10-09T19:46:20;461.40;1254.40
55365;DHT22;41245;45.384;20.390;2023-10-09T19:48:47;461.20;921.60
55365;DHT22;41245;45.384;20.390;2023-10-09T19:51:15;461.00;870.40
55365;DHT22;41245;45.384;20.390;2023-10-09T19:53:44;461.00;896.00
